sensor_id;sensor_type;location;lat;lon;timestamp;P1;durP1;ratioP1;P2;durP2;ratioP2
4961;SDS011;2496;52.468;13.342;2023-01-10T00:01:56;3.47;;;2.30;;
4961;SDS011;2496;52.468;13.342;2023-01-10T00:04:23;6.60;;;2.47;;
4961;SDS011;2496;52.468;13.342;2023-01-10T00:06:52;5.10;;;2.53;;
4961;SDS011;2496;52.468;13.342;2023-01-10T00:09:19;6.70;;;2.40;;
4961;SDS011;2496;52.468;13.342;2023-01-10T00:11:46;9.00;;;2.80;;
4961;SDS011;2496;52.468;13.342;2023-01-10T00:14:32;7.43;;;2.70;;
4961;SDS011;2496;52.468;13.342;2023-01-10T00:17:00;6.10;;;2.30;;
4961;SDS011;2496;52.468;13.342;2023-01-10T00:19:27;2.30;;;2.10;;
4961;SDS011;2496;52.468;13.342;2023-01-10T00:21:54;4.23;;;2.63;;
4961;SDS011;2496;52.468;13.342;2023-01-10T00:24:36;2.20;;;1.93;;
4961;SDS011;2496;52.468;13.342;2023-01-10T00:27:04;2.90;;;2.40;;
4961;SDS011;2496;52.468;13.342;2023-01-10T00:29:30;7.20;;;2.37;;
4961;SDS011;2496;52.468;13.342;2023-01-10T00:31:59;2.90;;;2.30;;
4961;SDS011;2496;52.468;13.342;2023-01-10T00:34:26;2.40;;;1.90;;
4961;SDS011;2496;52.468;13.342;2023-01-10T00:36:54;4.20;;;2.20;;
4961;SDS011;2496;52.468;13.342;2023-01-10T00:39:21;5.10;;;3.10;;
4961;SDS011;2496;52.468;13.342;2023-01-10T00:41:51;7.00;;;2.90;;
4961;SDS011;2496;52.468;13.342;2023-01-10T00:44:37;5.03;;;2.20;;
4961;SDS011;2496;52.468;13.342;2023-01-10T00:47:04;3.67;;;2.20;;
4961;SDS011;2496;52.468;13.342;2023-01-10T00:49:31;4.07;;;2.50;;
4961;SDS011;2496;52.468;13.342;2023-01-10T00:51:58;4.43;;;2.37;;
4961;SDS011;2496;52.468;13.342;2023-01-10T00:54:25;10.20;;;2.67;;
4961;SDS011;2496;52.468;13.342;2023-01-10T00:56:52;2.67;;;2.33;;
4961;SDS011;2496;52.468;13.342;2023-01-10T00:59:19;7.17;;;2.47;;
4961;SDS011;2496;52.468;13.342;2023-01-10T01:01:47;2.53;;;2.33;;
4961;SDS011;2496;52.468;13.342;2023-01-10T01:04:14;2.93;;;2.33;;
4961;SDS011;2496;52.468;13.342;2023-01-10T01:06:41;4.53;;;2.60;;
4961;SDS011;2496;52.468;13.342;2023-01-10T01:09:09;2.97;;;2.50;;
4961;SDS011;2496;52.468;13.342;2023-01-10T01:11:36;3.43;;;2.63;;
4961;SDS011;2496;52.468;13.342;2023-01-10T01:14:03;6.57;;;2.70;;
4961;SDS011;2496;52.468;13.342;2023-01-10T01:16:31;4.73;;;2.40;;
4961;SDS011;2496;52.468;13.342;2023-01-10T01:18:59;4.70;;;2.80;;
4961;SDS011;2496;52.468;13.342;2023-01-10T01:21:26;4.50;;;2.40;;
4961;SDS011;2496;52.468;13.342;2023-01-10T01:23:53;3.33;;;2.40;;
4961;SDS011;2496;52.468;13.342;2023-01-10T01:26:21;6.10;;;2.53;;
4961;SDS011;2496;52.468;13.342;2023-01-10T01:28:49;2.50;;;2.03;;
4961;SDS011;2496;52.468;13.342;2023-01-10T01:31:16;4.80;;;2.50;;
4961;SDS011;2496;52.468;13.342;2023-01-10T01:33:44;3.70;;;2.20;;
4961;SDS011;2496;52.468;13.342;2023-01-10T01:36:13;4.57;;;3.07;;
4961;SDS011;2496;52.468;13.342;2023-01-10T01:38:40;4.27;;;2.60;;
4961;SDS011;2496;52.468;13.342;2023-01-10T01:41:07;3.37;;;2.60;;
4961;SDS011;2496;52.468;13.342;2023-01-10T01:43:57;4.20;;;2.73;;
4961;SDS011;2496;52.468;13.342;2023-01-10T01:46:25;5.30;;;2.70;;
4961;SDS011;2496;52.468;13.342;2023-01-10T01:48:53;7.73;;;2.63;;
4961;SDS011;2496;52.468;13.342;2023-01-10T01:51:21;3.00;;;2.53;;
4961;SDS011;2496;52.468;13.342;2023-01-10T01:53:51;4.20;;;2.97;;
4961;SDS011;2496;52.468;13.342;2023-01-10T01:56:23;3.27;;;2.80;;
4961;SDS011;2496;52.468;13.342;2023-01-10T01:58:55;3.63;;;2.40;;
4961;SDS011;2496;52.468;13.342;2023-01-10T02:01:25;4.03;;;2.43;;
4961;SDS011;2496;52.468;13.342;2023-01-10T02:03:54;5.13;;;2.57;;
4961;SDS011;2496;52.468;13.342;2023-01-10T02:06:27;5.13;;;2.70;;
4961;SDS011;2496;52.468;13.342;2023-01-10T02:08:55;3.63;;;2.60;;
4961;SDS011;2496;52.468;13.342;2023-01-10T02:11:28;3.57;;;2.50;;
4961;SDS011;2496;52.468;13.342;2023-01-10T02:13:55;4.60;;;3.10;;
4961;SDS011;2496;52.468;13.342;2023-01-10T02:16:24;4.37;;;3.00;;
4961;SDS011;2496;52.468;13.342;2023-01-10T02:18:51;4.60;;;2.87;;
4961;SDS011;2496;52.468;13.342;2023-01-10T02:21:22;4.57;;;3.30;;
4961;SDS011;2496;52.468;13.342;2023-01-10T02:24:33;3.30;;;2.70;;
4961;SDS011;2496;52.468;13.342;2023-01-10T02:27:26;3.47;;;2.73;;
4961;SDS011;2496;52.468;13.342;2023-01-10T02:30:06;2.80;;;2.10;;
4961;SDS011;2496;52.468;13.342;2023-01-10T02:32:52;6.37;;;2.33;;
4961;SDS011;2496;52.468;13.342;2023-01-10T02:35:35;4.60;;;2.50;;
4961;SDS011;2496;52.468;13.342;2023-01-10T02:38:18;7.30;;;2.50;;
4961;SDS011;2496;52.468;13.342;2023-01-10T02:40:54;2.90;;;2.40;;
4961;SDS011;2496;52.468;13.342;2023-01-10T02:43:32;2.90;;;2.30;;
4961;SDS011;2496;52.468;13.342;2023-01-10T02:46:04;4.70;;;2.23;;
4961;SDS011;2496;52.468;13.342;2023-01-10T02:48:35;5.37;;;2.30;;
4961;SDS011;2496;52.468;13.342;2023-01-10T02:51:03;5.83;;;2.30;;
4961;SDS011;2496;52.468;13.342;2023-01-10T02:53:36;4.00;;;2.00;;
4961;SDS011;2496;52.468;13.342;2023-01-10T02:59:40;4.97;;;2.10;;
4961;SDS011;2496;52.468;13.342;2023-01-10T03:02:43;5.03;;;3.00;;
4961;SDS011;2496;52.468;13.342;2023-01-10T03:05:28;4.50;;;2.47;;
4961;SDS011;2496;52.468;13.342;2023-01-10T03:08:07;5.70;;;2.37;;
4961;SDS011;2496;52.468;13.342;2023-01-10T03:10:44;4.30;;;2.87;;
4961;SDS011;2496;52.468;13.342;2023-01-10T03:13:17;3.30;;;2.53;;
4961;SDS011;2496;52.468;13.342;2023-01-10T03:15:50;6.27;;;3.30;;
4961;SDS011;2496;52.468;13.342;2023-01-10T03:18:20;3.30;;;2.60;;
4961;SDS011;2496;52.468;13.342;2023-01-10T03:20:53;4.87;;;3.23;;
4961;SDS011;2496;52.468;13.342;2023-01-10T03:23:24;6.33;;;3.60;;
4961;SDS011;2496;52.468;13.342;2023-01-10T03:25:54;10.03;;;3.50;;
4961;SDS011;2496;52.468;13.342;2023-01-10T03:28:23;4.13;;;2.97;;
4961;SDS011;2496;52.468;13.342;2023-01-10T03:30:56;8.07;;;3.40;;
4961;SDS011;2496;52.468;13.342;2023-01-10T03:33:27;5.00;;;3.77;;
4961;SDS011;2496;52.468;13.342;2023-01-10T03:36:01;7.43;;;3.30;;
4961;SDS011;2496;52.468;13.342;2023-01-10T03:38:41;6.00;;;3.50;;
4961;SDS011;2496;52.468;13.342;2023-01-10T03:41:12;11.10;;;4.07;;
4961;SDS011;2496;52.468;13.342;2023-01-10T03:43:44;8.37;;;3.47;;
4961;SDS011;2496;52.468;13.342;2023-01-10T03:46:34;6.40;;;3.67;;
4961;SDS011;2496;52.468;13.342;2023-01-10T03:49:04;5.97;;;3.80;;
4961;SDS011;2496;52.468;13.342;2023-01-10T03:51:34;4.70;;;3.40;;
4961;SDS011;2496;52.468;13.342;2023-01-10T03:54:03;15.20;;;4.53;;
4961;SDS011;2496;52.468;13.342;2023-01-10T03:56:30;10.53;;;3.93;;
4961;SDS011;2496;52.468;13.342;2023-01-10T03:59:08;6.83;;;3.83;;
4961;SDS011;2496;52.468;13.342;2023-01-10T04:01:35;6.07;;;3.47;;
4961;SDS011;2496;52.468;13.342;2023-01-10T04:04:03;7.53;;;4.40;;
4961;SDS011;2496;52.468;13.342;2023-01-10T04:06:30;13.47;;;4.50;;
4961;SDS011;2496;52.468;13.342;2023-01-10T04:08:58;8.73;;;4.40;;
4961;SDS011;2496;52.468;13.342;2023-01-10T04:11:25;5.60;;;3.73;;
4961;SDS011;2496;52.468;13.342;2023-01-10T04:13:52;11.23;;;5.83;;
4961;SDS011;2496;52.468;13.342;2023-01-10T04:16:20;8.53;;;5.33;;
4961;SDS011;2496;52.468;13.342;2023-01-10T04:18:47;11.90;;;4.17;;
4961;SDS011;2496;52.468;13.342;2023-01-10T04:21:14;13.70;;;5.20;;
4961;SDS011;2496;52.468;13.342;2023-01-10T04:23:41;13.97;;;5.90;;
4961;SDS011;2496;52.468;13.342;2023-01-10T04:26:10;9.10;;;5.37;;
4961;SDS011;2496;52.468;13.342;2023-01-10T04:28:37;13.33;;;5.10;;
4961;SDS011;2496;52.468;13.342;2023-01-10T04:31:04;12.63;;;4.80;;
4961;SDS011;2496;52.468;13.342;2023-01-10T04:33:31;12.53;;;4.70;;
4961;SDS011;2496;52.468;13.342;2023-01-10T04:35:59;16.33;;;6.37;;
4961;SDS011;2496;52.468;13.342;2023-01-10T04:38:26;8.97;;;5.40;;
4961;SDS011;2496;52.468;13.342;2023-01-10T04:40:53;10.77;;;5.50;;
4961;SDS011;2496;52.468;13.342;2023-01-10T04:43:23;20.23;;;5.17;;
4961;SDS011;2496;52.468;13.342;2023-01-10T04:45:50;11.00;;;5.40;;
4961;SDS011;2496;52.468;13.342;2023-01-10T04:48:17;11.30;;;4.50;;
4961;SDS011;2496;52.468;13.342;2023-01-10T04:50:47;6.77;;;4.50;;
4961;SDS011;2496;52.468;13.342;2023-01-10T04:53:15;9.43;;;4.97;;
4961;SDS011;2496;52.468;13.342;2023-01-10T04:55:43;10.10;;;5.50;;
4961;SDS011;2496;52.468;13.342;2023-01-10T04:58:10;20.13;;;6.70;;
4961;SDS011;2496;52.468;13.342;2023-01-10T05:00:38;11.53;;;6.47;;
4961;SDS011;2496;52.468;13.342;2023-01-10T05:03:06;15.70;;;5.00;;
4961;SDS011;2496;52.468;13.342;2023-01-10T05:05:33;9.23;;;5.37;;
4961;SDS011;2496;52.468;13.342;2023-01-10T05:08:00;10.07;;;5.37;;
4961;SDS011;2496;52.468;13.342;2023-01-10T05:10:27;15.20;;;6.27;;
4961;SDS011;2496;52.468;13.342;2023-01-10T05:12:55;15.43;;;5.43;;
4961;SDS011;2496;52.468;13.342;2023-01-10T05:15:22;8.97;;;4.93;;
4961;SDS011;2496;52.468;13.342;2023-01-10T05:17:55;12.10;;;5.70;;
4961;SDS011;2496;52.468;13.342;2023-01-10T05:20:23;9.83;;;4.70;;
4961;SDS011;2496;52.468;13.342;2023-01-10T05:22:50;12.30;;;5.30;;
4961;SDS011;2496;52.468;13.342;2023-01-10T05:25:17;14.03;;;5.53;;
4961;SDS011;2496;52.468;13.342;2023-01-10T05:27:44;9.33;;;5.20;;
4961;SDS011;2496;52.468;13.342;2023-01-10T05:30:12;39.30;;;13.10;;
4961;SDS011;2496;52.468;13.342;2023-01-10T05:32:39;11.97;;;6.20;;
4961;SDS011;2496;52.468;13.342;2023-01-10T05:35:08;10.10;;;4.77;;
4961;SDS011;2496;52.468;13.342;2023-01-10T05:37:35;12.53;;;5.57;;
4961;SDS011;2496;52.468;13.342;2023-01-10T05:40:02;13.33;;;5.40;;
4961;SDS011;2496;52.468;13.342;2023-01-10T05:42:30;14.90;;;5.90;;
4961;SDS011;2496;52.468;13.342;2023-01-10T05:44:57;15.23;;;5.87;;
4961;SDS011;2496;52.468;13.342;2023-01-10T05:47:24;17.90;;;5.97;;
4961;SDS011;2496;52.468;13.342;2023-01-10T05:49:51;21.57;;;8.77;;
4961;SDS011;2496;52.468;13.342;2023-01-10T05:52:19;13.13;;;6.50;;
4961;SDS011;2496;52.468;13.342;2023-01-10T05:54:46;12.13;;;5.97;;
4961;SDS011;2496;52.468;13.342;2023-01-10T05:57:13;8.77;;;5.13;;
4961;SDS011;2496;52.468;13.342;2023-01-10T05:59:40;21.80;;;5.97;;
4961;SDS011;2496;52.468;13.342;2023-01-10T06:02:07;12.50;;;6.83;;
4961;SDS011;2496;52.468;13.342;2023-01-10T06:04:34;21.93;;;6.40;;
4961;SDS011;2496;52.468;13.342;2023-01-10T06:07:01;15.53;;;6.63;;
4961;SDS011;2496;52.468;13.342;2023-01-10T06:09:31;16.17;;;6.73;;
4961;SDS011;2496;52.468;13.342;2023-01-10T06:11:58;21.90;;;5.80;;
4961;SDS011;2496;52.468;13.342;2023-01-10T06:14:25;15.40;;;6.80;;
4961;SDS011;2496;52.468;13.342;2023-01-10T06:16:52;15.37;;;6.00;;
4961;SDS011;2496;52.468;13.342;2023-01-10T06:19:19;19.27;;;7.13;;
4961;SDS011;2496;52.468;13.342;2023-01-10T06:21:47;24.43;;;7.73;;
4961;SDS011;2496;52.468;13.342;2023-01-10T06:24:14;13.33;;;6.07;;
4961;SDS011;2496;52.468;13.342;2023-01-10T06:26:43;19.03;;;6.60;;
4961;SDS011;2496;52.468;13.342;2023-01-10T06:29:10;16.00;;;7.20;;
4961;SDS011;2496;52.468;13.342;2023-01-10T06:31:38;14.00;;;6.00;;
4961;SDS011;2496;52.468;13.342;2023-01-10T06:34:05;18.73;;;6.77;;
4961;SDS011;2496;52.468;13.342;2023-01-10T06:36:32;16.80;;;6.27;;
4961;SDS011;2496;52.468;13.342;2023-01-10T06:38:59;12.97;;;7.07;;
4961;SDS011;2496;52.468;13.342;2023-01-10T06:41:26;10.50;;;5.70;;
4961;SDS011;2496;52.468;13.342;2023-01-10T06:43:55;20.70;;;6.07;;
4961;SDS011;2496;52.468;13.342;2023-01-10T06:46:22;15.63;;;6.70;;
4961;SDS011;2496;52.468;13.342;2023-01-10T06:48:49;19.47;;;6.07;;
4961;SDS011;2496;52.468;13.342;2023-01-10T06:51:16;19.17;;;7.47;;
4961;SDS011;2496;52.468;13.342;2023-01-10T06:53:43;8.60;;;5.57;;
4961;SDS011;2496;52.468;13.342;2023-01-10T06:56:10;11.47;;;6.37;;
4961;SDS011;2496;52.468;13.342;2023-01-10T06:58:37;11.80;;;6.30;;
4961;SDS011;2496;52.468;13.342;2023-01-10T07:01:06;19.07;;;7.00;;
4961;SDS011;2496;52.468;13.342;2023-01-10T07:03:38;20.33;;;7.37;;
4961;SDS011;2496;52.468;13.342;2023-01-10T07:06:05;14.57;;;6.43;;
4961;SDS011;2496;52.468;13.342;2023-01-10T07:08:34;10.10;;;6.10;;
4961;SDS011;2496;52.468;13.342;2023-01-10T07:11:01;15.33;;;7.10;;
4961;SDS011;2496;52.468;13.342;2023-01-10T07:13:28;18.30;;;7.10;;
4961;SDS011;2496;52.468;13.342;2023-01-10T07:15:59;18.60;;;8.03;;
4961;SDS011;2496;52.468;13.342;2023-01-10T07:18:28;19.50;;;8.77;;
4961;SDS011;2496;52.468;13.342;2023-01-10T07:20:56;14.80;;;7.27;;
4961;SDS011;2496;52.468;13.342;2023-01-10T07:23:23;23.83;;;7.80;;
4961;SDS011;2496;52.468;13.342;2023-01-10T07:25:49;15.63;;;6.37;;
4961;SDS011;2496;52.468;13.342;2023-01-10T07:28:16;9.97;;;6.33;;
4961;SDS011;2496;52.468;13.342;2023-01-10T07:30:43;18.00;;;7.07;;
4961;SDS011;2496;52.468;13.342;2023-01-10T07:33:10;20.23;;;7.10;;
4961;SDS011;2496;52.468;13.342;2023-01-10T07:35:39;12.27;;;7.00;;
4961;SDS011;2496;52.468;13.342;2023-01-10T07:38:06;17.33;;;6.50;;
4961;SDS011;2496;52.468;13.342;2023-01-10T07:40:33;22.23;;;7.00;;
4961;SDS011;2496;52.468;13.342;2023-01-10T07:43:00;13.87;;;7.50;;
4961;SDS011;2496;52.468;13.342;2023-01-10T07:45:29;15.97;;;8.77;;
4961;SDS011;2496;52.468;13.342;2023-01-10T07:47:56;13.00;;;9.03;;
4961;SDS011;2496;52.468;13.342;2023-01-10T07:50:24;20.43;;;8.77;;
4961;SDS011;2496;52.468;13.342;2023-01-10T07:52:54;22.33;;;8.00;;
4961;SDS011;2496;52.468;13.342;2023-01-10T07:55:21;15.50;;;7.90;;
4961;SDS011;2496;52.468;13.342;2023-01-10T07:57:48;15.43;;;6.93;;
4961;SDS011;2496;52.468;13.342;2023-01-10T08:00:16;23.80;;;7.07;;
4961;SDS011;2496;52.468;13.342;2023-01-10T08:02:44;11.80;;;7.50;;
4961;SDS011;2496;52.468;13.342;2023-01-10T08:05:12;17.83;;;7.50;;
4961;SDS011;2496;52.468;13.342;2023-01-10T08:07:38;11.97;;;6.83;;
4961;SDS011;2496;52.468;13.342;2023-01-10T08:10:08;13.53;;;7.67;;
4961;SDS011;2496;52.468;13.342;2023-01-10T08:12:35;14.93;;;6.73;;
4961;SDS011;2496;52.468;13.342;2023-01-10T08:15:02;12.03;;;6.00;;
4961;SDS011;2496;52.468;13.342;2023-01-10T08:17:31;19.03;;;8.07;;
4961;SDS011;2496;52.468;13.342;2023-01-10T08:19:59;15.50;;;6.33;;
4961;SDS011;2496;52.468;13.342;2023-01-10T08:22:26;11.97;;;7.53;;
4961;SDS011;2496;52.468;13.342;2023-01-10T08:24:53;12.40;;;6.63;;
4961;SDS011;2496;52.468;13.342;2023-01-10T08:27:24;17.17;;;8.30;;
4961;SDS011;2496;52.468;13.342;2023-01-10T08:29:51;13.43;;;8.00;;
4961;SDS011;2496;52.468;13.342;2023-01-10T08:32:18;11.30;;;6.60;;
4961;SDS011;2496;52.468;13.342;2023-01-10T08:34:46;18.07;;;6.50;;
4961;SDS011;2496;52.468;13.342;2023-01-10T08:37:13;14.93;;;7.53;;
4961;SDS011;2496;52.468;13.342;2023-01-10T08:39:40;14.33;;;6.83;;
4961;SDS011;2496;52.468;13.342;2023-01-10T08:42:07;15.70;;;7.70;;
4961;SDS011;2496;52.468;13.342;2023-01-10T08:44:35;11.23;;;6.00;;
4961;SDS011;2496;52.468;13.342;2023-01-10T08:47:02;13.20;;;7.07;;
4961;SDS011;2496;52.468;13.342;2023-01-10T08:49:29;14.47;;;6.13;;
4961;SDS011;2496;52.468;13.342;2023-01-10T08:51:56;14.27;;;6.03;;
4961;SDS011;2496;52.468;13.342;2023-01-10T08:54:23;16.90;;;7.33;;
4961;SDS011;2496;52.468;13.342;2023-01-10T08:56:50;11.87;;;6.60;;
4961;SDS011;2496;52.468;13.342;2023-01-10T08:59:17;18.37;;;7.90;;
4961;SDS011;2496;52.468;13.342;2023-01-10T09:01:46;18.33;;;7.70;;
4961;SDS011;2496;52.468;13.342;2023-01-10T09:04:12;13.00;;;7.03;;
4961;SDS011;2496;52.468;13.342;2023-01-10T09:06:39;15.93;;;7.70;;
4961;SDS011;2496;52.468;13.342;2023-01-10T09:09:06;11.83;;;7.83;;
4961;SDS011;2496;52.468;13.342;2023-01-10T09:11:34;16.57;;;8.40;;
4961;SDS011;2496;52.468;13.342;2023-01-10T09:14:01;15.20;;;7.70;;
4961;SDS011;2496;52.468;13.342;2023-01-10T09:16:28;27.30;;;9.90;;
4961;SDS011;2496;52.468;13.342;2023-01-10T09:18:56;21.20;;;9.77;;
4961;SDS011;2496;52.468;13.342;2023-01-10T09:21:23;17.77;;;7.70;;
4961;SDS011;2496;52.468;13.342;2023-01-10T09:23:50;20.33;;;6.77;;
4961;SDS011;2496;52.468;13.342;2023-01-10T09:26:17;14.17;;;7.77;;
4961;SDS011;2496;52.468;13.342;2023-01-10T09:28:44;11.87;;;7.30;;
4961;SDS011;2496;52.468;13.342;2023-01-10T09:31:11;10.40;;;6.30;;
4961;SDS011;2496;52.468;13.342;2023-01-10T09:33:38;21.73;;;8.17;;
4961;SDS011;2496;52.468;13.342;2023-01-10T09:36:08;19.77;;;8.60;;
4961;SDS011;2496;52.468;13.342;2023-01-10T09:38:35;20.43;;;7.80;;
4961;SDS011;2496;52.468;13.342;2023-01-10T09:41:10;19.07;;;7.23;;
4961;SDS011;2496;52.468;13.342;2023-01-10T09:43:53;18.73;;;6.93;;
4961;SDS011;2496;52.468;13.342;2023-01-10T09:46:30;12.27;;;6.80;;
4961;SDS011;2496;52.468;13.342;2023-01-10T09:49:10;17.43;;;6.90;;
4961;SDS011;2496;52.468;13.342;2023-01-10T09:51:49;12.23;;;6.13;;
4961;SDS011;2496;52.468;13.342;2023-01-10T09:54:24;10.10;;;6.90;;
4961;SDS011;2496;52.468;13.342;2023-01-10T09:56:53;29.40;;;7.87;;
4961;SDS011;2496;52.468;13.342;2023-01-10T09:59:22;10.77;;;7.30;;
4961;SDS011;2496;52.468;13.342;2023-01-10T10:01:51;11.30;;;6.03;;
4961;SDS011;2496;52.468;13.342;2023-01-10T10:04:24;20.23;;;7.87;;
4961;SDS011;2496;52.468;13.342;2023-01-10T10:06:57;12.97;;;8.27;;
4961;SDS011;2496;52.468;13.342;2023-01-10T10:09:25;11.90;;;6.20;;
4961;SDS011;2496;52.468;13.342;2023-01-10T10:11:59;18.23;;;7.00;;
4961;SDS011;2496;52.468;13.342;2023-01-10T10:14:45;18.47;;;7.10;;
4961;SDS011;2496;52.468;13.342;2023-01-10T10:17:24;21.37;;;7.10;;
4961;SDS011;2496;52.468;13.342;2023-01-10T10:23:00;15.20;;;5.90;;
4961;SDS011;2496;52.468;13.342;2023-01-10T10:25:41;14.03;;;5.87;;
4961;SDS011;2496;52.468;13.342;2023-01-10T10:28:26;11.53;;;5.80;;
4961;SDS011;2496;52.468;13.342;2023-01-10T10:31:23;14.30;;;5.93;;
4961;SDS011;2496;52.468;13.342;2023-01-10T10:34:09;12.33;;;5.17;;
4961;SDS011;2496;52.468;13.342;2023-01-10T10:36:41;15.80;;;5.43;;
4961;SDS011;2496;52.468;13.342;2023-01-10T10:39:16;13.70;;;6.20;;
4961;SDS011;2496;52.468;13.342;2023-01-10T10:41:48;17.60;;;6.70;;
4961;SDS011;2496;52.468;13.342;2023-01-10T10:44:24;14.33;;;5.97;;
4961;SDS011;2496;52.468;13.342;2023-01-10T10:46:58;15.33;;;6.50;;
4961;SDS011;2496;52.468;13.342;2023-01-10T10:49:30;13.80;;;6.10;;
4961;SDS011;2496;52.468;13.342;2023-01-10T10:52:04;11.23;;;5.77;;
4961;SDS011;2496;52.468;13.342;2023-01-10T10:54:41;15.40;;;5.67;;
4961;SDS011;2496;52.468;13.342;2023-01-10T10:57:08;15.47;;;7.63;;
4961;SDS011;2496;52.468;13.342;2023-01-10T10:59:36;15.53;;;5.80;;
4961;SDS011;2496;52.468;13.342;2023-01-10T11:02:09;14.20;;;6.67;;
4961;SDS011;2496;52.468;13.342;2023-01-10T11:04:46;12.27;;;5.27;;
4961;SDS011;2496;52.468;13.342;2023-01-10T11:07:13;12.67;;;5.00;;
4961;SDS011;2496;52.468;13.342;2023-01-10T11:09:44;17.47;;;5.17;;
4961;SDS011;2496;52.468;13.342;2023-01-10T11:12:14;17.07;;;5.77;;
4961;SDS011;2496;52.468;13.342;2023-01-10T11:14:44;10.60;;;5.47;;
4961;SDS011;2496;52.468;13.342;2023-01-10T11:17:17;13.00;;;5.00;;
4961;SDS011;2496;52.468;13.342;2023-01-10T11:19:53;9.47;;;6.03;;
4961;SDS011;2496;52.468;13.342;2023-01-10T11:22:22;21.63;;;6.57;;
4961;SDS011;2496;52.468;13.342;2023-01-10T11:24:51;18.30;;;6.13;;
4961;SDS011;2496;52.468;13.342;2023-01-10T11:27:21;11.43;;;4.80;;
4961;SDS011;2496;52.468;13.342;2023-01-10T11:29:51;13.47;;;5.13;;
4961;SDS011;2496;52.468;13.342;2023-01-10T11:32:22;17.03;;;5.87;;
4961;SDS011;2496;52.468;13.342;2023-01-10T11:34:53;9.53;;;4.70;;
4961;SDS011;2496;52.468;13.342;2023-01-10T11:37:24;17.50;;;4.80;;
4961;SDS011;2496;52.468;13.342;2023-01-10T11:42:44;12.93;;;5.10;;
4961;SDS011;2496;52.468;13.342;2023-01-10T11:45:18;12.57;;;6.00;;
4961;SDS011;2496;52.468;13.342;2023-01-10T11:47:49;17.63;;;7.50;;
4961;SDS011;2496;52.468;13.342;2023-01-10T11:50:20;17.30;;;5.93;;
4961;SDS011;2496;52.468;13.342;2023-01-10T11:52:50;15.57;;;4.93;;
4961;SDS011;2496;52.468;13.342;2023-01-10T11:55:19;9.20;;;5.00;;
4961;SDS011;2496;52.468;13.342;2023-01-10T11:57:53;12.07;;;4.70;;
4961;SDS011;2496;52.468;13.342;2023-01-10T12:00:30;13.43;;;4.53;;
4961;SDS011;2496;52.468;13.342;2023-01-10T12:03:00;20.00;;;3.90;;
4961;SDS011;2496;52.468;13.342;2023-01-10T12:05:28;22.93;;;4.50;;
4961;SDS011;2496;52.468;13.342;2023-01-10T12:07:56;20.77;;;5.20;;
4961;SDS011;2496;52.468;13.342;2023-01-10T12:10:27;9.80;;;3.53;;
4961;SDS011;2496;52.468;13.342;2023-01-10T12:12:55;12.70;;;4.10;;
4961;SDS011;2496;52.468;13.342;2023-01-10T12:15:25;12.13;;;4.70;;
4961;SDS011;2496;52.468;13.342;2023-01-10T12:17:53;17.17;;;5.60;;
4961;SDS011;2496;52.468;13.342;2023-01-10T12:20:23;12.90;;;4.43;;
4961;SDS011;2496;52.468;13.342;2023-01-10T12:22:54;10.57;;;4.00;;
4961;SDS011;2496;52.468;13.342;2023-01-10T12:25:29;10.93;;;4.00;;
4961;SDS011;2496;52.468;13.342;2023-01-10T12:27:58;13.20;;;4.00;;
4961;SDS011;2496;52.468;13.342;2023-01-10T12:30:28;13.03;;;4.00;;
4961;SDS011;2496;52.468;13.342;2023-01-10T12:32:58;20.00;;;6.93;;
4961;SDS011;2496;52.468;13.342;2023-01-10T12:35:33;20.10;;;6.10;;
4961;SDS011;2496;52.468;13.342;2023-01-10T12:38:06;12.17;;;3.77;;
4961;SDS011;2496;52.468;13.342;2023-01-10T12:40:41;7.90;;;3.07;;
4961;SDS011;2496;52.468;13.342;2023-01-10T12:43:12;8.00;;;3.23;;
4961;SDS011;2496;52.468;13.342;2023-01-10T12:46:02;14.70;;;3.37;;
4961;SDS011;2496;52.468;13.342;2023-01-10T12:48:39;13.23;;;3.70;;
4961;SDS011;2496;52.468;13.342;2023-01-10T12:51:14;9.27;;;2.90;;
4961;SDS011;2496;52.468;13.342;2023-01-10T12:53:46;8.80;;;3.73;;
4961;SDS011;2496;52.468;13.342;2023-01-10T12:56:20;11.90;;;3.60;;
4961;SDS011;2496;52.468;13.342;2023-01-10T12:58:49;15.07;;;4.60;;
4961;SDS011;2496;52.468;13.342;2023-01-10T13:01:21;12.73;;;3.20;;
4961;SDS011;2496;52.468;13.342;2023-01-10T13:03:54;11.77;;;3.77;;
4961;SDS011;2496;52.468;13.342;2023-01-10T13:06:28;12.40;;;4.43;;
4961;SDS011;2496;52.468;13.342;2023-01-10T13:08:57;13.63;;;4.27;;
4961;SDS011;2496;52.468;13.342;2023-01-10T13:11:31;14.93;;;4.10;;
4961;SDS011;2496;52.468;13.342;2023-01-10T13:14:05;15.60;;;3.23;;
4961;SDS011;2496;52.468;13.342;2023-01-10T13:16:41;11.60;;;2.50;;
4961;SDS011;2496;52.468;13.342;2023-01-10T13:19:22;13.57;;;2.90;;
4961;SDS011;2496;52.468;13.342;2023-01-10T13:21:55;10.03;;;3.37;;
4961;SDS011;2496;52.468;13.342;2023-01-10T13:24:48;13.23;;;3.03;;
4961;SDS011;2496;52.468;13.342;2023-01-10T13:27:22;14.57;;;4.43;;
4961;SDS011;2496;52.468;13.342;2023-01-10T13:29:51;9.93;;;3.20;;
4961;SDS011;2496;52.468;13.342;2023-01-10T13:32:20;14.20;;;3.20;;
4961;SDS011;2496;52.468;13.342;2023-01-10T13:34:49;8.20;;;2.83;;
4961;SDS011;2496;52.468;13.342;2023-01-10T13:37:20;11.33;;;3.67;;
4961;SDS011;2496;52.468;13.342;2023-01-10T13:39:50;20.30;;;4.07;;
4961;SDS011;2496;52.468;13.342;2023-01-10T13:42:26;7.47;;;3.10;;
4961;SDS011;2496;52.468;13.342;2023-01-10T13:45:20;13.47;;;4.47;;
4961;SDS011;2496;52.468;13.342;2023-01-10T13:47:55;10.80;;;3.70;;
4961;SDS011;2496;52.468;13.342;2023-01-10T13:53:41;17.53;;;4.87;;
4961;SDS011;2496;52.468;13.342;2023-01-10T13:56:33;16.77;;;4.33;;
4961;SDS011;2496;52.468;13.342;2023-01-10T13:59:10;10.67;;;3.67;;
4961;SDS011;2496;52.468;13.342;2023-01-10T14:01:57;12.70;;;3.63;;
4961;SDS011;2496;52.468;13.342;2023-01-10T14:04:44;6.67;;;2.93;;
4961;SDS011;2496;52.468;13.342;2023-01-10T14:07:18;15.60;;;4.53;;
4961;SDS011;2496;52.468;13.342;2023-01-10T14:09:49;12.30;;;4.60;;
4961;SDS011;2496;52.468;13.342;2023-01-10T14:12:20;9.30;;;3.93;;
4961;SDS011;2496;52.468;13.342;2023-01-10T14:14:52;9.30;;;3.90;;
4961;SDS011;2496;52.468;13.342;2023-01-10T14:17:24;11.97;;;4.00;;
4961;SDS011;2496;52.468;13.342;2023-01-10T14:19:58;16.73;;;5.00;;
4961;SDS011;2496;52.468;13.342;2023-01-10T14:22:44;21.73;;;5.57;;
4961;SDS011;2496;52.468;13.342;2023-01-10T14:25:33;11.20;;;4.07;;
4961;SDS011;2496;52.468;13.342;2023-01-10T14:28:02;5.97;;;3.53;;
4961;SDS011;2496;52.468;13.342;2023-01-10T14:30:33;17.27;;;4.10;;
4961;SDS011;2496;52.468;13.342;2023-01-10T14:33:06;14.53;;;3.70;;
4961;SDS011;2496;52.468;13.342;2023-01-10T14:35:42;11.63;;;3.77;;
4961;SDS011;2496;52.468;13.342;2023-01-10T14:38:13;10.93;;;4.40;;
4961;SDS011;2496;52.468;13.342;2023-01-10T14:40:46;8.47;;;3.43;;
4961;SDS011;2496;52.468;13.342;2023-01-10T14:43:16;26.23;;;4.50;;
4961;SDS011;2496;52.468;13.342;2023-01-10T14:45:48;9.13;;;4.33;;
4961;SDS011;2496;52.468;13.342;2023-01-10T14:48:25;6.33;;;3.83;;
4961;SDS011;2496;52.468;13.342;2023-01-10T14:51:15;10.17;;;4.63;;
4961;SDS011;2496;52.468;13.342;2023-01-10T14:53:46;17.23;;;6.50;;
4961;SDS011;2496;52.468;13.342;2023-01-10T14:56:17;12.50;;;5.03;;
4961;SDS011;2496;52.468;13.342;2023-01-10T14:58:47;15.40;;;3.90;;
4961;SDS011;2496;52.468;13.342;2023-01-10T15:01:16;10.30;;;4.50;;
4961;SDS011;2496;52.468;13.342;2023-01-10T15:03:48;15.40;;;3.60;;
4961;SDS011;2496;52.468;13.342;2023-01-10T15:06:16;6.90;;;3.10;;
4961;SDS011;2496;52.468;13.342;2023-01-10T15:08:43;20.70;;;5.20;;
4961;SDS011;2496;52.468;13.342;2023-01-10T15:11:10;13.33;;;5.00;;
4961;SDS011;2496;52.468;13.342;2023-01-10T15:13:42;9.20;;;4.70;;
4961;SDS011;2496;52.468;13.342;2023-01-10T15:16:17;34.33;;;11.53;;
4961;SDS011;2496;52.468;13.342;2023-01-10T15:18:46;24.97;;;6.47;;
4961;SDS011;2496;52.468;13.342;2023-01-10T15:21:15;18.30;;;4.67;;
4961;SDS011;2496;52.468;13.342;2023-01-10T15:23:46;12.23;;;4.97;;
4961;SDS011;2496;52.468;13.342;2023-01-10T15:26:14;11.10;;;4.00;;
4961;SDS011;2496;52.468;13.342;2023-01-10T15:28:43;12.43;;;3.63;;